Aérodrome :
LOGIN :

S'inscrire | Disclaimer

   EN    FR    IT 

 










Légende :    VFR   VFR Marginal   IFR   IFR Intensif   IFR Très Intensif
Visi : 
Plafond : 
>= 8 km
>= 3000ft
5 à 8 km
1000 à 3000 ft
1500m à 5 km
500 à 1000 ft
800 à 1500m
200 à 500 ft
< 800m
< 200 ft
Symboles :   Orages  Brouillard  Fortes neiges  Fortes précipitations  Vent > 20 kt
SIGMETs :   Divers  Orages  Givrage  Turbulence  Onde Orograph.  Cendres Volcan.






- Altitude de l'aérodrome : 124 ft
- Code IATA : AVN


LFMV - Avignon Caumont

DERNIER METAR :
  • 130430Z AUTO 34019G30KT CAVOK 07/M03 Q1021 BECMG 34025G40KT

METARs EXPIRÉS :
  • 130400Z AUTO 34020KT CAVOK 07/M03 Q1022 BECMG 34025G40KT
  • 130330Z AUTO 34023G35KT CAVOK 07/M03 Q1021 NOSIG
  • 130300Z AUTO 34023G36KT 310V010 CAVOK 07/M03 Q1021 NOSIG
  • 130230Z AUTO 34023G37KT CAVOK 07/M03 Q1021 NOSIG
  • 130200Z AUTO 34023G35KT CAVOK 07/M03 Q1022

TAF TAF LFMV
Valide du 13 à 03h jusqu'au 14 à 03h UTC


130200Z 1303/1403 34025G40KT CAVOK
BECMG 1315/1317 34020G30KT
BECMG 1323/1401 34012KT
PROB30
TEMPO 1401/1403 34015G25KT
ATIS : +33 4 90 84 32 84



MET'MAP, la Météo Aéronautique d'un coup d'oeil ! - Copyright ORBIFLY Décembre 2007 - Disclaimer

ORBIFLY MET'MAP TEAM :

Programmation & Développement : Alexandra Zaïnal
Sur une idée originale de : Baudouin d'Aumeries
Assistance à la programmation : Marc-Olivier Méhu
Soutien technique & logistique : Manuel Goepfert

Contact : metmap@orbifly.com




SOURCES & CREDITS :

   NOAA